sensor_id;sensor_type;location;lat;lon;timestamp;P1;durP1;ratioP1;P2;durP2;ratioP2
67130;SDS011;54051;53.464;49.532;2022-12-17T00:01:52;20.83;;;6.70;;
67130;SDS011;54051;53.464;49.532;2022-12-17T00:04:36;18.75;;;7.15;;
67130;SDS011;54051;53.464;49.532;2022-12-17T00:07:20;18.77;;;7.13;;
67130;SDS011;54051;53.464;49.532;2022-12-17T00:10:05;18.70;;;6.60;;
67130;SDS011;54051;53.464;49.532;2022-12-17T00:12:50;19.70;;;7.05;;
67130;SDS011;54051;53.464;49.532;2022-12-17T00:15:35;17.60;;;6.57;;
67130;SDS011;54051;53.464;49.532;2022-12-17T00:18:20;18.08;;;6.03;;
67130;SDS011;54051;53.464;49.532;2022-12-17T00:21:04;16.17;;;6.97;;
67130;SDS011;54051;53.464;49.532;2022-12-17T00:23:49;17.27;;;5.88;;
67130;SDS011;54051;53.464;49.532;2022-12-17T00:26:34;16.83;;;6.15;;
67130;SDS011;54051;53.464;49.532;2022-12-17T00:29:18;15.32;;;5.85;;
67130;SDS011;54051;53.464;49.532;2022-12-17T00:32:03;17.42;;;6.53;;
67130;SDS011;54051;53.464;49.532;2022-12-17T00:34:48;18.08;;;6.60;;
67130;SDS011;54051;53.464;49.532;2022-12-17T00:37:32;17.70;;;5.80;;
67130;SDS011;54051;53.464;49.532;2022-12-17T00:40:17;18.05;;;6.03;;
67130;SDS011;54051;53.464;49.532;2022-12-17T00:43:02;15.80;;;5.82;;
67130;SDS011;54051;53.464;49.532;2022-12-17T00:45:52;15.55;;;6.10;;
67130;SDS011;54051;53.464;49.532;2022-12-17T00:48:36;16.98;;;6.47;;
67130;SDS011;54051;53.464;49.532;2022-12-17T00:51:21;18.17;;;6.30;;
67130;SDS011;54051;53.464;49.532;2022-12-17T00:54:06;15.30;;;5.80;;
67130;SDS011;54051;53.464;49.532;2022-12-17T00:56:58;15.05;;;6.05;;
67130;SDS011;54051;53.464;49.532;2022-12-17T00:59:42;18.38;;;6.32;;
67130;SDS011;54051;53.464;49.532;2022-12-17T01:02:27;16.90;;;6.05;;
67130;SDS011;54051;53.464;49.532;2022-12-17T01:05:11;15.27;;;5.65;;
67130;SDS011;54051;53.464;49.532;2022-12-17T01:07:56;16.38;;;6.32;;
67130;SDS011;54051;53.464;49.532;2022-12-17T01:10:49;17.75;;;6.63;;
67130;SDS011;54051;53.464;49.532;2022-12-17T01:13:33;16.58;;;6.32;;
67130;SDS011;54051;53.464;49.532;2022-12-17T01:16:18;18.63;;;6.53;;
67130;SDS011;54051;53.464;49.532;2022-12-17T01:19:02;16.48;;;5.97;;
67130;SDS011;54051;53.464;49.532;2022-12-17T01:21:47;18.17;;;6.63;;
67130;SDS011;54051;53.464;49.532;2022-12-17T01:24:31;21.05;;;8.05;;
67130;SDS011;54051;53.464;49.532;2022-12-17T01:27:15;26.77;;;8.75;;
67130;SDS011;54051;53.464;49.532;2022-12-17T01:30:00;19.63;;;7.53;;
67130;SDS011;54051;53.464;49.532;2022-12-17T01:32:44;27.45;;;9.80;;
67130;SDS011;54051;53.464;49.532;2022-12-17T01:35:28;27.17;;;9.13;;
67130;SDS011;54051;53.464;49.532;2022-12-17T01:38:17;27.17;;;9.85;;
67130;SDS011;54051;53.464;49.532;2022-12-17T01:41:02;20.92;;;7.50;;
67130;SDS011;54051;53.464;49.532;2022-12-17T01:43:48;22.67;;;8.18;;
67130;SDS011;54051;53.464;49.532;2022-12-17T01:46:38;18.83;;;7.32;;
67130;SDS011;54051;53.464;49.532;2022-12-17T01:49:29;20.48;;;7.68;;
67130;SDS011;54051;53.464;49.532;2022-12-17T01:52:14;18.30;;;7.40;;
67130;SDS011;54051;53.464;49.532;2022-12-17T01:55:00;19.95;;;7.10;;
67130;SDS011;54051;53.464;49.532;2022-12-17T01:57:48;23.75;;;7.88;;
67130;SDS011;54051;53.464;49.532;2022-12-17T02:00:33;23.52;;;8.00;;
67130;SDS011;54051;53.464;49.532;2022-12-17T02:03:17;19.77;;;8.20;;
67130;SDS011;54051;53.464;49.532;2022-12-17T02:06:16;18.65;;;6.93;;
67130;SDS011;54051;53.464;49.532;2022-12-17T02:09:22;17.75;;;6.82;;
67130;SDS011;54051;53.464;49.532;2022-12-17T02:15:23;18.20;;;6.80;;
67130;SDS011;54051;53.464;49.532;2022-12-17T02:18:11;20.65;;;6.75;;
67130;SDS011;54051;53.464;49.532;2022-12-17T02:21:01;17.00;;;7.13;;
67130;SDS011;54051;53.464;49.532;2022-12-17T02:29:28;16.65;;;6.95;;
67130;SDS011;54051;53.464;49.532;2022-12-17T02:32:18;16.42;;;6.78;;
67130;SDS011;54051;53.464;49.532;2022-12-17T02:35:06;19.85;;;7.80;;
67130;SDS011;54051;53.464;49.532;2022-12-17T02:37:58;20.02;;;8.07;;
67130;SDS011;54051;53.464;49.532;2022-12-17T02:40:43;18.50;;;7.65;;
67130;SDS011;54051;53.464;49.532;2022-12-17T02:43:30;21.55;;;8.10;;
67130;SDS011;54051;53.464;49.532;2022-12-17T02:46:17;22.98;;;8.18;;
67130;SDS011;54051;53.464;49.532;2022-12-17T02:49:03;21.33;;;7.95;;
67130;SDS011;54051;53.464;49.532;2022-12-17T02:51:48;23.40;;;8.52;;
67130;SDS011;54051;53.464;49.532;2022-12-17T02:54:33;22.25;;;8.90;;
67130;SDS011;54051;53.464;49.532;2022-12-17T02:57:18;22.58;;;8.52;;
67130;SDS011;54051;53.464;49.532;2022-12-17T03:00:04;23.25;;;9.20;;
67130;SDS011;54051;53.464;49.532;2022-12-17T03:02:49;20.00;;;8.73;;
67130;SDS011;54051;53.464;49.532;2022-12-17T03:05:33;23.80;;;8.90;;
67130;SDS011;54051;53.464;49.532;2022-12-17T03:08:17;22.00;;;8.35;;
67130;SDS011;54051;53.464;49.532;2022-12-17T03:11:02;23.23;;;8.98;;
67130;SDS011;54051;53.464;49.532;2022-12-17T03:13:46;23.98;;;8.35;;
67130;SDS011;54051;53.464;49.532;2022-12-17T03:16:30;23.67;;;9.43;;
67130;SDS011;54051;53.464;49.532;2022-12-17T03:19:14;22.58;;;8.73;;
67130;SDS011;54051;53.464;49.532;2022-12-17T03:21:58;22.75;;;8.80;;
67130;SDS011;54051;53.464;49.532;2022-12-17T03:24:43;24.20;;;10.23;;
67130;SDS011;54051;53.464;49.532;2022-12-17T03:27:27;25.17;;;9.25;;
67130;SDS011;54051;53.464;49.532;2022-12-17T03:30:11;24.92;;;9.55;;
67130;SDS011;54051;53.464;49.532;2022-12-17T03:32:56;23.10;;;9.43;;
67130;SDS011;54051;53.464;49.532;2022-12-17T03:35:40;23.88;;;9.13;;
67130;SDS011;54051;53.464;49.532;2022-12-17T03:38:24;23.17;;;9.63;;
67130;SDS011;54051;53.464;49.532;2022-12-17T03:41:09;28.15;;;9.95;;
67130;SDS011;54051;53.464;49.532;2022-12-17T03:43:53;22.90;;;9.07;;
67130;SDS011;54051;53.464;49.532;2022-12-17T03:46:37;25.08;;;9.70;;
67130;SDS011;54051;53.464;49.532;2022-12-17T03:49:21;25.73;;;9.77;;
67130;SDS011;54051;53.464;49.532;2022-12-17T03:52:05;27.52;;;10.10;;
67130;SDS011;54051;53.464;49.532;2022-12-17T03:54:49;23.50;;;9.05;;
67130;SDS011;54051;53.464;49.532;2022-12-17T03:57:34;22.52;;;9.32;;
67130;SDS011;54051;53.464;49.532;2022-12-17T04:00:21;22.63;;;9.20;;
67130;SDS011;54051;53.464;49.532;2022-12-17T04:03:06;25.90;;;9.70;;
67130;SDS011;54051;53.464;49.532;2022-12-17T04:05:50;24.17;;;9.57;;
67130;SDS011;54051;53.464;49.532;2022-12-17T04:08:34;26.55;;;10.43;;
67130;SDS011;54051;53.464;49.532;2022-12-17T04:11:19;26.27;;;9.65;;
67130;SDS011;54051;53.464;49.532;2022-12-17T04:14:03;26.42;;;10.75;;
67130;SDS011;54051;53.464;49.532;2022-12-17T04:16:47;24.27;;;10.00;;
67130;SDS011;54051;53.464;49.532;2022-12-17T04:19:31;26.63;;;9.80;;
67130;SDS011;54051;53.464;49.532;2022-12-17T04:22:16;26.92;;;9.27;;
67130;SDS011;54051;53.464;49.532;2022-12-17T04:25:00;24.95;;;9.80;;
67130;SDS011;54051;53.464;49.532;2022-12-17T04:27:44;25.65;;;9.20;;
67130;SDS011;54051;53.464;49.532;2022-12-17T04:30:29;26.08;;;9.40;;
67130;SDS011;54051;53.464;49.532;2022-12-17T04:33:13;25.60;;;9.05;;
67130;SDS011;54051;53.464;49.532;2022-12-17T04:35:57;23.38;;;8.57;;
67130;SDS011;54051;53.464;49.532;2022-12-17T04:38:41;23.10;;;9.20;;
67130;SDS011;54051;53.464;49.532;2022-12-17T04:41:26;23.15;;;9.27;;
67130;SDS011;54051;53.464;49.532;2022-12-17T04:44:10;26.25;;;10.50;;
67130;SDS011;54051;53.464;49.532;2022-12-17T04:46:54;26.98;;;10.85;;
67130;SDS011;54051;53.464;49.532;2022-12-17T04:49:38;25.45;;;9.45;;
67130;SDS011;54051;53.464;49.532;2022-12-17T04:52:23;25.73;;;10.10;;
67130;SDS011;54051;53.464;49.532;2022-12-17T04:55:07;25.88;;;9.48;;
67130;SDS011;54051;53.464;49.532;2022-12-17T04:57:52;27.63;;;10.85;;
67130;SDS011;54051;53.464;49.532;2022-12-17T05:00:53;24.95;;;9.77;;
67130;SDS011;54051;53.464;49.532;2022-12-17T05:03:38;26.55;;;9.93;;
67130;SDS011;54051;53.464;49.532;2022-12-17T05:06:23;23.08;;;9.02;;
67130;SDS011;54051;53.464;49.532;2022-12-17T05:09:08;24.85;;;9.85;;
67130;SDS011;54051;53.464;49.532;2022-12-17T05:11:53;25.15;;;9.95;;
67130;SDS011;54051;53.464;49.532;2022-12-17T05:14:37;28.60;;;10.52;;
67130;SDS011;54051;53.464;49.532;2022-12-17T05:17:22;25.83;;;9.98;;
67130;SDS011;54051;53.464;49.532;2022-12-17T05:20:06;25.50;;;10.25;;
67130;SDS011;54051;53.464;49.532;2022-12-17T05:22:51;25.15;;;10.10;;
67130;SDS011;54051;53.464;49.532;2022-12-17T05:25:35;25.45;;;9.90;;
67130;SDS011;54051;53.464;49.532;2022-12-17T05:28:20;24.70;;;9.35;;
67130;SDS011;54051;53.464;49.532;2022-12-17T05:31:04;24.95;;;10.10;;
67130;SDS011;54051;53.464;49.532;2022-12-17T05:33:48;25.23;;;9.65;;
67130;SDS011;54051;53.464;49.532;2022-12-17T05:36:32;25.63;;;9.88;;
67130;SDS011;54051;53.464;49.532;2022-12-17T05:39:17;26.17;;;9.32;;
67130;SDS011;54051;53.464;49.532;2022-12-17T05:42:01;24.85;;;9.98;;
67130;SDS011;54051;53.464;49.532;2022-12-17T05:44:45;22.85;;;10.07;;
67130;SDS011;54051;53.464;49.532;2022-12-17T05:47:29;22.85;;;9.18;;
67130;SDS011;54051;53.464;49.532;2022-12-17T05:50:14;25.42;;;9.60;;
67130;SDS011;54051;53.464;49.532;2022-12-17T05:53:02;22.95;;;9.30;;
67130;SDS011;54051;53.464;49.532;2022-12-17T05:55:58;23.25;;;9.52;;
67130;SDS011;54051;53.464;49.532;2022-12-17T05:58:43;23.20;;;9.98;;
67130;SDS011;54051;53.464;49.532;2022-12-17T06:01:27;24.33;;;9.63;;
67130;SDS011;54051;53.464;49.532;2022-12-17T06:04:12;25.15;;;10.63;;
67130;SDS011;54051;53.464;49.532;2022-12-17T06:06:56;27.15;;;10.55;;
67130;SDS011;54051;53.464;49.532;2022-12-17T06:09:41;27.45;;;10.25;;
67130;SDS011;54051;53.464;49.532;2022-12-17T06:12:25;27.88;;;10.48;;
67130;SDS011;54051;53.464;49.532;2022-12-17T06:15:10;28.17;;;11.15;;
67130;SDS011;54051;53.464;49.532;2022-12-17T06:17:55;31.77;;;10.43;;
67130;SDS011;54051;53.464;49.532;2022-12-17T06:20:40;25.63;;;9.40;;
67130;SDS011;54051;53.464;49.532;2022-12-17T06:23:24;24.65;;;10.10;;
67130;SDS011;54051;53.464;49.532;2022-12-17T06:26:09;24.00;;;9.95;;
67130;SDS011;54051;53.464;49.532;2022-12-17T06:28:54;27.85;;;10.43;;
67130;SDS011;54051;53.464;49.532;2022-12-17T06:31:38;24.63;;;10.30;;
67130;SDS011;54051;53.464;49.532;2022-12-17T06:34:23;26.75;;;11.07;;
67130;SDS011;54051;53.464;49.532;2022-12-17T06:37:07;28.95;;;10.65;;
67130;SDS011;54051;53.464;49.532;2022-12-17T06:39:51;24.85;;;10.25;;
67130;SDS011;54051;53.464;49.532;2022-12-17T06:42:36;24.73;;;9.70;;
67130;SDS011;54051;53.464;49.532;2022-12-17T06:45:20;26.00;;;10.38;;
67130;SDS011;54051;53.464;49.532;2022-12-17T06:48:05;25.52;;;10.50;;
67130;SDS011;54051;53.464;49.532;2022-12-17T06:50:54;25.42;;;9.98;;
67130;SDS011;54051;53.464;49.532;2022-12-17T06:53:39;26.58;;;10.70;;
67130;SDS011;54051;53.464;49.532;2022-12-17T06:56:25;24.08;;;9.55;;
67130;SDS011;54051;53.464;49.532;2022-12-17T06:59:10;27.70;;;10.30;;
67130;SDS011;54051;53.464;49.532;2022-12-17T07:01:54;25.45;;;10.15;;
67130;SDS011;54051;53.464;49.532;2022-12-17T07:04:38;27.60;;;10.80;;
67130;SDS011;54051;53.464;49.532;2022-12-17T07:07:23;22.30;;;9.38;;
67130;SDS011;54051;53.464;49.532;2022-12-17T07:10:07;26.30;;;9.98;;
67130;SDS011;54051;53.464;49.532;2022-12-17T07:12:52;25.35;;;10.35;;
67130;SDS011;54051;53.464;49.532;2022-12-17T07:15:36;26.25;;;10.43;;
67130;SDS011;54051;53.464;49.532;2022-12-17T07:18:20;27.08;;;11.13;;
67130;SDS011;54051;53.464;49.532;2022-12-17T07:21:04;26.10;;;10.55;;
67130;SDS011;54051;53.464;49.532;2022-12-17T07:23:49;26.10;;;10.30;;
67130;SDS011;54051;53.464;49.532;2022-12-17T07:26:33;29.73;;;11.75;;
67130;SDS011;54051;53.464;49.532;2022-12-17T07:29:17;28.15;;;10.70;;
67130;SDS011;54051;53.464;49.532;2022-12-17T07:32:02;28.98;;;11.35;;
67130;SDS011;54051;53.464;49.532;2022-12-17T07:34:46;27.65;;;10.90;;
67130;SDS011;54051;53.464;49.532;2022-12-17T07:37:30;30.27;;;11.98;;
67130;SDS011;54051;53.464;49.532;2022-12-17T07:40:15;26.65;;;11.13;;
67130;SDS011;54051;53.464;49.532;2022-12-17T07:42:59;27.17;;;10.27;;
67130;SDS011;54051;53.464;49.532;2022-12-17T07:45:43;33.38;;;12.38;;
67130;SDS011;54051;53.464;49.532;2022-12-17T07:48:28;28.95;;;12.52;;
67130;SDS011;54051;53.464;49.532;2022-12-17T07:51:15;36.55;;;14.05;;
67130;SDS011;54051;53.464;49.532;2022-12-17T07:54:00;38.65;;;15.15;;
67130;SDS011;54051;53.464;49.532;2022-12-17T07:56:44;39.55;;;13.93;;
67130;SDS011;54051;53.464;49.532;2022-12-17T07:59:28;35.95;;;14.07;;
67130;SDS011;54051;53.464;49.532;2022-12-17T08:02:18;34.97;;;14.32;;
67130;SDS011;54051;53.464;49.532;2022-12-17T08:05:02;40.95;;;14.95;;
67130;SDS011;54051;53.464;49.532;2022-12-17T08:07:47;38.70;;;15.20;;
67130;SDS011;54051;53.464;49.532;2022-12-17T08:10:31;34.33;;;13.07;;
67130;SDS011;54051;53.464;49.532;2022-12-17T08:13:16;36.72;;;15.18;;
67130;SDS011;54051;53.464;49.532;2022-12-17T08:16:00;36.78;;;15.55;;
67130;SDS011;54051;53.464;49.532;2022-12-17T08:18:44;37.30;;;15.00;;
67130;SDS011;54051;53.464;49.532;2022-12-17T08:21:28;39.17;;;15.23;;
67130;SDS011;54051;53.464;49.532;2022-12-17T08:24:12;33.70;;;14.23;;
67130;SDS011;54051;53.464;49.532;2022-12-17T08:26:57;37.65;;;14.57;;
67130;SDS011;54051;53.464;49.532;2022-12-17T08:29:41;38.42;;;14.40;;
67130;SDS011;54051;53.464;49.532;2022-12-17T08:35:13;34.90;;;12.55;;
67130;SDS011;54051;53.464;49.532;2022-12-17T08:38:01;32.85;;;12.15;;
67130;SDS011;54051;53.464;49.532;2022-12-17T08:40:46;28.75;;;11.55;;
67130;SDS011;54051;53.464;49.532;2022-12-17T08:43:31;31.25;;;12.93;;
67130;SDS011;54051;53.464;49.532;2022-12-17T08:46:16;31.67;;;12.68;;
67130;SDS011;54051;53.464;49.532;2022-12-17T08:49:00;32.35;;;12.15;;
67130;SDS011;54051;53.464;49.532;2022-12-17T08:51:45;32.33;;;12.35;;
67130;SDS011;54051;53.464;49.532;2022-12-17T08:54:29;30.85;;;11.82;;
67130;SDS011;54051;53.464;49.532;2022-12-17T08:57:13;32.10;;;11.75;;
67130;SDS011;54051;53.464;49.532;2022-12-17T08:59:58;29.35;;;11.68;;
67130;SDS011;54051;53.464;49.532;2022-12-17T09:02:42;30.92;;;11.60;;
67130;SDS011;54051;53.464;49.532;2022-12-17T09:05:27;29.92;;;11.68;;
67130;SDS011;54051;53.464;49.532;2022-12-17T09:08:11;29.63;;;11.93;;
67130;SDS011;54051;53.464;49.532;2022-12-17T09:10:58;32.60;;;12.43;;
67130;SDS011;54051;53.464;49.532;2022-12-17T09:13:43;34.72;;;12.93;;
67130;SDS011;54051;53.464;49.532;2022-12-17T09:16:27;33.72;;;13.40;;
67130;SDS011;54051;53.464;49.532;2022-12-17T09:19:12;35.78;;;13.23;;
67130;SDS011;54051;53.464;49.532;2022-12-17T09:21:56;32.45;;;12.45;;
67130;SDS011;54051;53.464;49.532;2022-12-17T09:24:40;34.03;;;13.55;;
67130;SDS011;54051;53.464;49.532;2022-12-17T09:27:25;32.42;;;13.05;;
67130;SDS011;54051;53.464;49.532;2022-12-17T09:30:10;30.00;;;11.60;;
67130;SDS011;54051;53.464;49.532;2022-12-17T09:32:54;32.25;;;12.93;;
67130;SDS011;54051;53.464;49.532;2022-12-17T09:35:46;31.85;;;12.07;;
67130;SDS011;54051;53.464;49.532;2022-12-17T09:38:31;27.60;;;11.57;;
67130;SDS011;54051;53.464;49.532;2022-12-17T09:49:55;24.52;;;9.15;;
67130;SDS011;54051;53.464;49.532;2022-12-17T09:52:40;24.98;;;10.52;;
67130;SDS011;54051;53.464;49.532;2022-12-17T09:55:30;32.47;;;13.18;;
67130;SDS011;54051;53.464;49.532;2022-12-17T09:58:24;37.13;;;14.00;;
67130;SDS011;54051;53.464;49.532;2022-12-17T10:01:12;38.17;;;13.90;;
67130;SDS011;54051;53.464;49.532;2022-12-17T10:04:19;32.35;;;13.05;;
67130;SDS011;54051;53.464;49.532;2022-12-17T10:07:17;35.28;;;13.85;;
67130;SDS011;54051;53.464;49.532;2022-12-17T10:10:16;31.92;;;13.23;;
67130;SDS011;54051;53.464;49.532;2022-12-17T10:13:07;30.92;;;12.00;;
67130;SDS011;54051;53.464;49.532;2022-12-17T10:15:54;32.40;;;12.98;;
67130;SDS011;54051;53.464;49.532;2022-12-17T10:18:39;29.52;;;12.32;;
67130;SDS011;54051;53.464;49.532;2022-12-17T10:21:25;30.25;;;11.93;;
67130;SDS011;54051;53.464;49.532;2022-12-17T10:26:55;29.98;;;12.77;;
67130;SDS011;54051;53.464;49.532;2022-12-17T10:29:40;29.63;;;12.05;;
67130;SDS011;54051;53.464;49.532;2022-12-17T10:38:23;26.63;;;11.07;;
67130;SDS011;54051;53.464;49.532;2022-12-17T10:41:19;27.77;;;11.52;;
67130;SDS011;54051;53.464;49.532;2022-12-17T10:44:22;33.10;;;11.30;;
67130;SDS011;54051;53.464;49.532;2022-12-17T10:47:15;29.33;;;12.52;;
67130;SDS011;54051;53.464;49.532;2022-12-17T10:50:02;31.07;;;11.70;;
67130;SDS011;54051;53.464;49.532;2022-12-17T10:52:51;30.40;;;12.40;;
67130;SDS011;54051;53.464;49.532;2022-12-17T10:55:36;31.10;;;11.15;;
67130;SDS011;54051;53.464;49.532;2022-12-17T10:58:33;29.65;;;11.52;;
67130;SDS011;54051;53.464;49.532;2022-12-17T11:01:23;34.45;;;11.77;;
67130;SDS011;54051;53.464;49.532;2022-12-17T11:04:28;31.92;;;11.93;;
67130;SDS011;54051;53.464;49.532;2022-12-17T11:07:25;28.63;;;10.60;;
67130;SDS011;54051;53.464;49.532;2022-12-17T11:10:14;29.13;;;11.40;;
67130;SDS011;54051;53.464;49.532;2022-12-17T11:13:02;28.02;;;10.98;;
67130;SDS011;54051;53.464;49.532;2022-12-17T11:15:55;25.23;;;10.38;;
67130;SDS011;54051;53.464;49.532;2022-12-17T11:21:55;30.17;;;10.63;;
67130;SDS011;54051;53.464;49.532;2022-12-17T11:24:45;29.08;;;10.13;;
67130;SDS011;54051;53.464;49.532;2022-12-17T11:27:47;24.27;;;10.20;;
67130;SDS011;54051;53.464;49.532;2022-12-17T11:30:53;28.73;;;10.02;;
67130;SDS011;54051;53.464;49.532;2022-12-17T11:33:55;24.92;;;10.30;;
67130;SDS011;54051;53.464;49.532;2022-12-17T11:37:05;25.17;;;10.05;;
67130;SDS011;54051;53.464;49.532;2022-12-17T11:40:18;23.55;;;9.10;;
67130;SDS011;54051;53.464;49.532;2022-12-17T11:43:18;20.88;;;8.80;;
67130;SDS011;54051;53.464;49.532;2022-12-17T11:49:32;19.23;;;8.55;;
67130;SDS011;54051;53.464;49.532;2022-12-17T11:52:48;23.38;;;8.95;;
67130;SDS011;54051;53.464;49.532;2022-12-17T11:58:37;22.27;;;8.55;;
67130;SDS011;54051;53.464;49.532;2022-12-17T12:07:40;20.15;;;8.35;;
67130;SDS011;54051;53.464;49.532;2022-12-17T12:10:32;21.40;;;8.52;;
67130;SDS011;54051;53.464;49.532;2022-12-17T12:16:55;19.98;;;7.78;;
67130;SDS011;54051;53.464;49.532;2022-12-17T12:19:54;23.88;;;8.98;;
67130;SDS011;54051;53.464;49.532;2022-12-17T12:22:59;21.90;;;8.00;;
67130;SDS011;54051;53.464;49.532;2022-12-17T12:29:02;19.88;;;8.00;;
67130;SDS011;54051;53.464;49.532;2022-12-17T12:32:03;21.95;;;8.30;;
67130;SDS011;54051;53.464;49.532;2022-12-17T12:35:04;22.55;;;8.60;;
67130;SDS011;54051;53.464;49.532;2022-12-17T12:37:58;20.00;;;7.32;;
67130;SDS011;54051;53.464;49.532;2022-12-17T12:40:46;18.10;;;6.90;;
67130;SDS011;54051;53.464;49.532;2022-12-17T12:44:05;18.45;;;7.10;;
67130;SDS011;54051;53.464;49.532;2022-12-17T12:47:05;17.27;;;7.05;;
67130;SDS011;54051;53.464;49.532;2022-12-17T12:50:02;18.75;;;7.95;;
67130;SDS011;54051;53.464;49.532;2022-12-17T12:53:00;18.75;;;7.25;;
67130;SDS011;54051;53.464;49.532;2022-12-17T12:55:46;20.85;;;7.53;;
67130;SDS011;54051;53.464;49.532;2022-12-17T12:58:31;18.48;;;7.32;;
67130;SDS011;54051;53.464;49.532;2022-12-17T13:01:18;15.98;;;6.70;;
67130;SDS011;54051;53.464;49.532;2022-12-17T13:07:20;16.88;;;7.20;;
67130;SDS011;54051;53.464;49.532;2022-12-17T13:09:52;17.27;;;6.57;;
67130;SDS011;54051;53.464;49.532;2022-12-17T13:12:33;18.23;;;6.25;;
67130;SDS011;54051;53.464;49.532;2022-12-17T13:15:13;15.65;;;6.15;;
67130;SDS011;54051;53.464;49.532;2022-12-17T13:17:44;17.42;;;6.80;;
67130;SDS011;54051;53.464;49.532;2022-12-17T13:20:28;14.20;;;5.88;;
67130;SDS011;54051;53.464;49.532;2022-12-17T13:25:39;13.90;;;6.22;;
67130;SDS011;54051;53.464;49.532;2022-12-17T13:28:25;16.43;;;6.03;;
67130;SDS011;54051;53.464;49.532;2022-12-17T13:36:42;16.80;;;5.68;;
67130;SDS011;54051;53.464;49.532;2022-12-17T13:42:22;14.13;;;6.13;;
67130;SDS011;54051;53.464;49.532;2022-12-17T13:44:59;13.50;;;5.85;;
67130;SDS011;54051;53.464;49.532;2022-12-17T13:47:29;15.63;;;5.67;;
67130;SDS011;54051;53.464;49.532;2022-12-17T13:49:59;13.88;;;5.75;;
67130;SDS011;54051;53.464;49.532;2022-12-17T13:52:27;15.23;;;5.93;;
67130;SDS011;54051;53.464;49.532;2022-12-17T13:55:04;13.75;;;5.65;;
67130;SDS011;54051;53.464;49.532;2022-12-17T13:57:35;13.90;;;5.53;;
67130;SDS011;54051;53.464;49.532;2022-12-17T14:00:02;16.77;;;6.65;;
67130;SDS011;54051;53.464;49.532;2022-12-17T14:02:33;13.82;;;5.78;;
67130;SDS011;54051;53.464;49.532;2022-12-17T14:05:05;14.10;;;5.43;;
67130;SDS011;54051;53.464;49.532;2022-12-17T14:07:32;14.40;;;5.38;;
67130;SDS011;54051;53.464;49.532;2022-12-17T14:10:03;15.27;;;5.80;;
67130;SDS011;54051;53.464;49.532;2022-12-17T14:15:00;15.63;;;5.53;;
67130;SDS011;54051;53.464;49.532;2022-12-17T14:17:34;14.63;;;5.97;;
67130;SDS011;54051;53.464;49.532;2022-12-17T14:20:06;13.85;;;5.50;;
67130;SDS011;54051;53.464;49.532;2022-12-17T14:22:40;15.27;;;6.13;;
67130;SDS011;54051;53.464;49.532;2022-12-17T14:25:16;15.32;;;6.18;;
67130;SDS011;54051;53.464;49.532;2022-12-17T14:28:00;15.48;;;5.72;;
67130;SDS011;54051;53.464;49.532;2022-12-17T14:33:02;17.55;;;6.07;;
67130;SDS011;54051;53.464;49.532;2022-12-17T14:35:30;14.35;;;5.32;;
67130;SDS011;54051;53.464;49.532;2022-12-17T14:37:59;17.90;;;6.40;;
67130;SDS011;54051;53.464;49.532;2022-12-17T14:40:26;13.30;;;5.40;;
67130;SDS011;54051;53.464;49.532;2022-12-17T14:42:56;11.70;;;5.10;;
67130;SDS011;54051;53.464;49.532;2022-12-17T14:45:25;16.45;;;6.10;;
67130;SDS011;54051;53.464;49.532;2022-12-17T14:47:59;15.98;;;5.93;;
67130;SDS011;54051;53.464;49.532;2022-12-17T14:50:30;15.38;;;5.97;;
67130;SDS011;54051;53.464;49.532;2022-12-17T14:52:59;14.73;;;6.22;;
67130;SDS011;54051;53.464;49.532;2022-12-17T14:57:53;17.50;;;7.28;;
67130;SDS011;54051;53.464;49.532;2022-12-17T15:00:32;17.33;;;6.68;;
67130;SDS011;54051;53.464;49.532;2022-12-17T15:03:01;17.00;;;6.40;;
67130;SDS011;54051;53.464;49.532;2022-12-17T15:05:27;15.70;;;6.32;;
67130;SDS011;54051;53.464;49.532;2022-12-17T15:07:53;17.02;;;6.18;;
67130;SDS011;54051;53.464;49.532;2022-12-17T15:10:20;15.48;;;6.07;;
67130;SDS011;54051;53.464;49.532;2022-12-17T15:12:46;16.27;;;6.30;;
67130;SDS011;54051;53.464;49.532;2022-12-17T15:15:15;16.60;;;6.72;;
67130;SDS011;54051;53.464;49.532;2022-12-17T15:17:42;16.40;;;6.00;;
67130;SDS011;54051;53.464;49.532;2022-12-17T15:20:13;14.65;;;5.90;;
67130;SDS011;54051;53.464;49.532;2022-12-17T15:22:41;17.70;;;6.78;;
67130;SDS011;54051;53.464;49.532;2022-12-17T15:25:15;15.15;;;5.95;;
67130;SDS011;54051;53.464;49.532;2022-12-17T15:27:42;17.65;;;6.80;;
67130;SDS011;54051;53.464;49.532;2022-12-17T15:30:18;16.73;;;6.22;;
67130;SDS011;54051;53.464;49.532;2022-12-17T15:32:44;13.95;;;5.63;;
67130;SDS011;54051;53.464;49.532;2022-12-17T15:35:12;17.90;;;6.30;;
67130;SDS011;54051;53.464;49.532;2022-12-17T15:40:05;14.45;;;5.35;;
67130;SDS011;54051;53.464;49.532;2022-12-17T15:42:31;15.02;;;5.68;;
67130;SDS011;54051;53.464;49.532;2022-12-17T15:45:16;15.05;;;6.00;;
67130;SDS011;54051;53.464;49.532;2022-12-17T15:47:42;16.42;;;6.10;;
67130;SDS011;54051;53.464;49.532;2022-12-17T15:50:08;16.40;;;6.20;;
67130;SDS011;54051;53.464;49.532;2022-12-17T15:52:34;17.73;;;6.63;;
67130;SDS011;54051;53.464;49.532;2022-12-17T15:55:00;15.25;;;5.82;;
67130;SDS011;54051;53.464;49.532;2022-12-17T15:57:26;16.88;;;6.35;;
67130;SDS011;54051;53.464;49.532;2022-12-17T15:59:52;17.40;;;6.70;;
67130;SDS011;54051;53.464;49.532;2022-12-17T16:02:18;16.25;;;6.22;;
67130;SDS011;54051;53.464;49.532;2022-12-17T16:04:44;16.30;;;6.22;;
67130;SDS011;54051;53.464;49.532;2022-12-17T16:07:10;19.00;;;7.43;;
67130;SDS011;54051;53.464;49.532;2022-12-17T16:09:36;19.40;;;6.05;;
67130;SDS011;54051;53.464;49.532;2022-12-17T16:12:03;16.77;;;6.15;;
67130;SDS011;54051;53.464;49.532;2022-12-17T16:14:29;16.95;;;6.90;;
67130;SDS011;54051;53.464;49.532;2022-12-17T16:16:55;15.40;;;6.70;;
67130;SDS011;54051;53.464;49.532;2022-12-17T16:19:21;17.48;;;6.65;;
67130;SDS011;54051;53.464;49.532;2022-12-17T16:21:47;17.95;;;6.93;;
67130;SDS011;54051;53.464;49.532;2022-12-17T16:24:13;19.20;;;6.97;;
67130;SDS011;54051;53.464;49.532;2022-12-17T16:26:39;18.55;;;7.32;;
67130;SDS011;54051;53.464;49.532;2022-12-17T16:29:05;18.42;;;7.15;;
67130;SDS011;54051;53.464;49.532;2022-12-17T16:31:31;18.00;;;6.85;;
67130;SDS011;54051;53.464;49.532;2022-12-17T16:33:57;18.65;;;7.18;;
67130;SDS011;54051;53.464;49.532;2022-12-17T16:36:23;21.70;;;7.65;;
67130;SDS011;54051;53.464;49.532;2022-12-17T16:38:50;14.25;;;5.43;;
67130;SDS011;54051;53.464;49.532;2022-12-17T16:41:18;19.10;;;7.57;;
67130;SDS011;54051;53.464;49.532;2022-12-17T16:43:45;18.35;;;7.35;;
67130;SDS011;54051;53.464;49.532;2022-12-17T16:46:34;20.10;;;7.68;;
67130;SDS011;54051;53.464;49.532;2022-12-17T16:51:31;18.90;;;6.78;;
67130;SDS011;54051;53.464;49.532;2022-12-17T16:53:58;17.67;;;7.43;;
67130;SDS011;54051;53.464;49.532;2022-12-17T16:56:28;16.88;;;7.00;;
67130;SDS011;54051;53.464;49.532;2022-12-17T16:58:54;20.98;;;7.43;;
67130;SDS011;54051;53.464;49.532;2022-12-17T17:01:21;17.85;;;6.70;;
67130;SDS011;54051;53.464;49.532;2022-12-17T17:03:49;19.58;;;7.03;;
67130;SDS011;54051;53.464;49.532;2022-12-17T17:06:16;18.95;;;7.20;;